createdAt,value
2022-09-06T00:01:57.778Z,5.13
2022-09-06T00:04:25.032Z,4.85
2022-09-06T00:06:52.177Z,4.18
2022-09-06T00:09:19.456Z,5.70
2022-09-06T00:11:46.717Z,5.07
2022-09-06T00:14:13.789Z,4.75
2022-09-06T00:16:40.941Z,5.28
2022-09-06T00:19:08.066Z,4.78
2022-09-06T00:21:35.757Z,5.07
2022-09-06T00:24:03.933Z,6.25
2022-09-06T00:26:31.792Z,5.88
2022-09-06T00:28:58.909Z,4.90
2022-09-06T00:31:27.034Z,4.00
2022-09-06T00:33:54.141Z,5.00
2022-09-06T00:36:21.985Z,4.82
2022-09-06T00:38:49.326Z,4.07
2022-09-06T00:41:18.119Z,5.43
2022-09-06T00:43:45.509Z,5.25
2022-09-06T00:46:17.601Z,4.60
2022-09-06T00:48:46.192Z,5.10
2022-09-06T00:51:15.053Z,4.40
2022-09-06T00:53:42.212Z,4.40
2022-09-06T00:56:09.604Z,4.78
2022-09-06T00:58:37.215Z,5.60
2022-09-06T01:01:05.242Z,4.13
2022-09-06T01:03:32.530Z,4.25
2022-09-06T01:06:05.932Z,4.55
2022-09-06T01:08:34.060Z,5.18
2022-09-06T01:11:09.416Z,4.50
2022-09-06T01:13:43.325Z,4.55
2022-09-06T01:16:26.141Z,5.40
2022-09-06T01:19:01.084Z,4.60
2022-09-06T01:21:48.171Z,4.00
2022-09-06T01:24:35.211Z,4.20
2022-09-06T01:27:22.253Z,5.20
2022-09-06T01:29:51.452Z,5.28
2022-09-06T01:32:22.872Z,4.68
2022-09-06T01:34:53.183Z,6.10
2022-09-06T01:37:21.504Z,4.82
2022-09-06T01:39:48.791Z,5.28
2022-09-06T01:42:19.180Z,6.32
2022-09-06T01:44:48.632Z,5.30
2022-09-06T01:47:32.792Z,10.48
2022-09-06T01:50:00.903Z,6.38
2022-09-06T01:52:28.008Z,4.73
2022-09-06T01:54:56.151Z,4.78
2022-09-06T01:57:33.779Z,5.68
2022-09-06T02:00:02.191Z,4.97
2022-09-06T02:02:38.015Z,7.20
2022-09-06T02:05:07.451Z,5.10
2022-09-06T02:07:35.752Z,4.90
2022-09-06T02:10:21.525Z,5.72
2022-09-06T02:12:50.720Z,4.35
2022-09-06T02:15:21.508Z,4.72
2022-09-06T02:17:52.799Z,4.97
2022-09-06T02:20:24.019Z,5.35
2022-09-06T02:22:52.178Z,4.95
2022-09-06T02:25:22.713Z,5.13
2022-09-06T02:27:49.971Z,4.30
2022-09-06T02:30:17.136Z,4.63
2022-09-06T02:32:53.248Z,6.53
2022-09-06T02:35:20.364Z,6.95
2022-09-06T02:37:47.503Z,4.53
2022-09-06T02:40:14.767Z,5.20
2022-09-06T02:42:41.924Z,5.85
2022-09-06T02:45:09.691Z,6.18
2022-09-06T02:47:36.827Z,4.60
2022-09-06T02:50:04.238Z,4.88
2022-09-06T02:52:31.404Z,4.38
2022-09-06T02:54:58.519Z,6.63
2022-09-06T02:57:25.631Z,4.43
2022-09-06T02:59:52.802Z,5.00
2022-09-06T03:02:19.933Z,5.47
2022-09-06T03:04:47.159Z,4.72
2022-09-06T03:07:14.271Z,4.53
2022-09-06T03:09:41.672Z,5.18
2022-09-06T03:12:08.871Z,5.43
2022-09-06T03:14:36.116Z,5.38
2022-09-06T03:17:04.180Z,5.13
2022-09-06T03:19:31.455Z,5.47
2022-09-06T03:21:58.581Z,5.25
2022-09-06T03:24:25.703Z,5.90
2022-09-06T03:26:52.895Z,5.38
2022-09-06T03:29:19.900Z,5.03
2022-09-06T03:31:46.644Z,5.40
2022-09-06T03:34:13.829Z,6.93
2022-09-06T03:36:40.968Z,6.75
2022-09-06T03:39:08.090Z,5.07
2022-09-06T03:41:34.859Z,6.40
2022-09-06T03:44:02.072Z,5.35
2022-09-06T03:46:30.750Z,5.43
2022-09-06T03:48:58.582Z,6.10
2022-09-06T03:51:25.938Z,5.05
2022-09-06T03:53:52.956Z,5.40
2022-09-06T03:56:20.011Z,5.05
2022-09-06T03:58:47.159Z,4.60
2022-09-06T04:01:14.376Z,5.60
2022-09-06T04:03:41.590Z,6.45
2022-09-06T04:06:09.214Z,6.40
2022-09-06T04:08:36.970Z,6.07
2022-09-06T04:11:04.626Z,4.88
2022-09-06T04:13:32.831Z,5.73
2022-09-06T04:16:00.182Z,5.55
2022-09-06T04:18:27.445Z,5.93
2022-09-06T04:20:56.079Z,5.63
2022-09-06T04:23:23.999Z,4.68
2022-09-06T04:25:52.094Z,5.25
2022-09-06T04:28:19.598Z,4.70
2022-09-06T04:30:52.330Z,5.18
2022-09-06T04:33:19.479Z,6.00
2022-09-06T04:35:50.286Z,4.72
2022-09-06T04:38:17.420Z,5.68
2022-09-06T04:40:44.557Z,5.07
2022-09-06T04:43:11.911Z,4.95
2022-09-06T04:45:39.145Z,4.95
2022-09-06T04:48:06.277Z,6.55
2022-09-06T04:50:33.494Z,4.70
2022-09-06T04:53:00.574Z,7.68
2022-09-06T04:55:29.285Z,5.32
2022-09-06T04:57:58.381Z,5.07
2022-09-06T05:00:25.432Z,6.03
2022-09-06T05:02:52.573Z,5.73
2022-09-06T05:05:19.729Z,5.20
2022-09-06T05:07:46.889Z,6.00
2022-09-06T05:10:14.025Z,5.35
2022-09-06T05:12:44.323Z,5.18
2022-09-06T05:15:11.741Z,4.80
2022-09-06T05:17:38.865Z,4.50
2022-09-06T05:20:06.133Z,5.63
2022-09-06T05:22:33.317Z,5.47
2022-09-06T05:25:00.405Z,5.68
2022-09-06T05:27:27.722Z,5.20
2022-09-06T05:29:54.897Z,6.13
2022-09-06T05:32:22.049Z,5.82
2022-09-06T05:34:49.061Z,9.38
2022-09-06T05:37:16.297Z,8.90
2022-09-06T05:39:43.549Z,9.20
2022-09-06T05:42:10.745Z,7.43
2022-09-06T05:44:38.176Z,7.97
2022-09-06T05:47:05.542Z,8.80
2022-09-06T05:49:32.749Z,6.85
2022-09-06T05:51:59.924Z,6.40
2022-09-06T05:54:27.133Z,6.57
2022-09-06T05:56:54.264Z,6.80
2022-09-06T05:59:21.421Z,7.18
2022-09-06T06:01:55.197Z,7.78
2022-09-06T06:04:22.945Z,9.95
2022-09-06T06:06:50.120Z,7.47
2022-09-06T06:09:17.267Z,9.20
2022-09-06T06:11:44.684Z,6.63
2022-09-06T06:14:11.812Z,7.00
2022-09-06T06:16:39.044Z,7.65
2022-09-06T06:19:06.225Z,6.82
2022-09-06T06:21:34.601Z,7.27
2022-09-06T06:24:02.931Z,7.53
2022-09-06T06:26:31.837Z,7.68
2022-09-06T06:29:01.801Z,7.68
2022-09-06T06:31:29.647Z,7.75
2022-09-06T06:33:57.123Z,9.57
2022-09-06T06:36:25.084Z,8.63
2022-09-06T06:38:54.126Z,8.30
2022-09-06T06:41:23.993Z,8.85
2022-09-06T06:43:53.255Z,8.40
2022-09-06T06:46:20.944Z,8.88
2022-09-06T06:48:52.703Z,9.45
2022-09-06T06:51:22.588Z,8.48
2022-09-06T06:53:50.052Z,8.05
2022-09-06T06:56:18.797Z,8.00
2022-09-06T06:58:47.775Z,8.60
2022-09-06T07:01:15.808Z,8.23
2022-09-06T07:03:43.123Z,7.50
2022-09-06T07:06:10.766Z,7.30
2022-09-06T07:08:38.209Z,6.90
2022-09-06T07:11:06.838Z,6.82
2022-09-06T07:13:34.318Z,7.05
2022-09-06T07:16:17.206Z,6.50
2022-09-06T07:18:45.804Z,6.28
2022-09-06T07:26:31.744Z,6.57
2022-09-06T07:29:01.723Z,6.13
2022-09-06T07:34:17.929Z,6.63
2022-09-06T07:36:45.167Z,6.45
2022-09-06T07:39:12.284Z,6.50
2022-09-06T07:41:39.515Z,6.22
2022-09-06T07:44:06.603Z,6.30
2022-09-06T07:46:33.903Z,6.05
2022-09-06T07:49:01.052Z,6.40
2022-09-06T07:51:28.260Z,7.15
2022-09-06T07:54:07.453Z,6.18
2022-09-06T07:56:43.159Z,5.88
2022-09-06T07:59:10.268Z,5.97
2022-09-06T08:01:39.318Z,6.28
2022-09-06T08:04:06.704Z,6.15
2022-09-06T08:09:22.947Z,6.05
2022-09-06T08:11:51.098Z,6.22
2022-09-06T08:14:17.743Z,5.80
2022-09-06T08:16:44.984Z,7.18
2022-09-06T08:19:12.479Z,6.22
2022-09-06T08:21:39.734Z,6.17
2022-09-06T08:24:07.861Z,6.55
2022-09-06T08:26:36.198Z,6.60
2022-09-06T08:29:05.919Z,6.10
2022-09-06T08:31:33.941Z,5.95
2022-09-06T08:34:01.673Z,6.07
2022-09-06T08:36:30.507Z,5.45
2022-09-06T08:38:59.352Z,5.65
2022-09-06T08:41:46.433Z,6.40
2022-09-06T08:47:08.031Z,5.47
2022-09-06T08:49:37.403Z,6.05
2022-09-06T08:52:07.308Z,5.78
2022-09-06T08:54:38.907Z,5.75
2022-09-06T08:57:09.290Z,5.50
2022-09-06T08:59:38.705Z,5.63
2022-09-06T09:02:22.040Z,5.25
2022-09-06T09:04:51.922Z,6.70
2022-09-06T09:07:27.536Z,5.15
2022-09-06T09:09:56.014Z,4.90
2022-09-06T09:12:24.202Z,5.72
2022-09-06T09:14:54.367Z,5.13
2022-09-06T09:17:25.390Z,5.50
2022-09-06T09:19:52.525Z,5.13
2022-09-06T09:22:20.274Z,5.20
2022-09-06T09:24:49.135Z,4.95
2022-09-06T09:27:18.957Z,8.25
2022-09-06T09:32:50.124Z,4.50
2022-09-06T09:35:18.304Z,5.18
2022-09-06T09:37:46.346Z,4.50
2022-09-06T09:40:16.624Z,4.65
2022-09-06T09:42:44.602Z,4.60
2022-09-06T09:45:29.616Z,5.90
2022-09-06T09:47:56.789Z,4.10
2022-09-06T09:50:26.157Z,4.95
2022-09-06T09:52:53.462Z,4.78
2022-09-06T09:55:25.400Z,4.97
2022-09-06T09:57:54.569Z,4.32
2022-09-06T10:00:39.821Z,4.70
2022-09-06T10:03:15.428Z,4.20
2022-09-06T10:05:43.077Z,3.93
2022-09-06T10:08:11.868Z,4.90
2022-09-06T10:10:43.284Z,4.35
2022-09-06T10:13:29.288Z,3.42
2022-09-06T10:15:58.575Z,4.15
2022-09-06T10:18:34.637Z,3.05
2022-09-06T10:21:02.839Z,3.08
2022-09-06T10:26:30.973Z,2.78
2022-09-06T10:29:03.630Z,2.47
2022-09-06T10:31:30.860Z,2.20
2022-09-06T10:34:02.047Z,2.38
2022-09-06T10:36:33.181Z,3.60
2022-09-06T10:39:04.215Z,4.38
2022-09-06T10:41:51.435Z,2.40
2022-09-06T10:44:19.543Z,3.35
2022-09-06T10:46:46.808Z,2.47
2022-09-06T10:49:17.299Z,2.78
2022-09-06T10:51:51.495Z,4.00
2022-09-06T10:54:22.926Z,2.42
2022-09-06T10:56:54.809Z,2.60
2022-09-06T11:02:21.665Z,2.80
2022-09-06T11:07:41.181Z,2.45
2022-09-06T11:10:15.594Z,3.50
2022-09-06T11:12:49.347Z,2.65
2022-09-06T11:15:17.227Z,2.50
2022-09-06T11:17:48.383Z,3.00
2022-09-06T11:20:23.386Z,2.60
2022-09-06T11:23:16.515Z,2.90
2022-09-06T11:26:23.054Z,2.38
2022-09-06T11:28:54.070Z,8.03
2022-09-06T11:34:20.270Z,3.03
2022-09-06T11:36:49.694Z,3.08
2022-09-06T11:42:32.053Z,2.87
2022-09-06T11:44:59.243Z,2.42
2022-09-06T11:47:42.411Z,5.00
2022-09-06T11:50:27.977Z,3.10
2022-09-06T11:52:57.636Z,3.50
2022-09-06T11:55:30.345Z,3.10
2022-09-06T11:57:58.568Z,3.80
2022-09-06T12:00:27.402Z,2.50
2022-09-06T12:02:54.771Z,3.78
2022-09-06T12:05:26.042Z,4.68
2022-09-06T12:08:13.130Z,3.60
2022-09-06T12:10:40.253Z,2.50
2022-09-06T12:13:36.426Z,3.80
2022-09-06T12:16:03.711Z,2.65
2022-09-06T12:18:50.677Z,4.15
2022-09-06T12:21:37.653Z,3.40
2022-09-06T12:24:06.152Z,2.97
2022-09-06T12:26:55.258Z,3.88
2022-09-06T12:29:25.216Z,3.30
2022-09-06T12:31:54.476Z,3.03
2022-09-06T12:34:24.729Z,3.28
2022-09-06T12:36:54.786Z,3.27
2022-09-06T12:39:21.948Z,3.80
2022-09-06T12:41:51.068Z,2.60
2022-09-06T12:44:18.889Z,2.78
2022-09-06T12:46:49.436Z,2.60
2022-09-06T12:49:18.641Z,3.10
2022-09-06T12:51:45.829Z,2.78
2022-09-06T12:54:19.172Z,3.58
2022-09-06T12:56:46.340Z,2.80
2022-09-06T12:59:19.350Z,2.58
2022-09-06T13:01:50.569Z,3.17
2022-09-06T13:04:24.216Z,2.55
2022-09-06T13:06:51.480Z,3.40
2022-09-06T13:09:20.398Z,2.63
2022-09-06T13:11:49.461Z,2.77
2022-09-06T13:14:19.508Z,2.88
2022-09-06T13:16:49.249Z,2.70
2022-09-06T13:19:18.864Z,2.57
2022-09-06T13:21:46.948Z,3.05
2022-09-06T13:24:33.977Z,3.65
2022-09-06T13:27:01.242Z,3.92
2022-09-06T13:29:33.079Z,2.72
2022-09-06T13:32:02.114Z,3.83
2022-09-06T13:34:30.531Z,4.13
2022-09-06T13:37:06.573Z,3.53
2022-09-06T13:39:35.281Z,3.35
2022-09-06T13:42:04.303Z,2.90
2022-09-06T13:44:31.844Z,3.03
2022-09-06T13:46:59.227Z,3.55
2022-09-06T13:49:27.112Z,5.10
2022-09-06T13:51:56.305Z,3.05
2022-09-06T13:54:23.443Z,2.92
2022-09-06T13:56:51.072Z,2.85
2022-09-06T13:59:18.709Z,3.53
2022-09-06T14:01:47.468Z,4.28
2022-09-06T14:04:16.187Z,3.40
2022-09-06T14:06:43.675Z,2.73
2022-09-06T14:09:11.038Z,3.03
2022-09-06T14:11:38.127Z,2.40
2022-09-06T14:14:05.406Z,2.80
2022-09-06T14:16:34.149Z,3.20
2022-09-06T14:19:01.361Z,3.40
2022-09-06T14:21:28.402Z,3.42
2022-09-06T14:23:58.847Z,3.75
2022-09-06T14:26:28.396Z,2.67
2022-09-06T14:28:55.556Z,2.30
2022-09-06T14:31:26.111Z,2.25
2022-09-06T14:33:55.455Z,2.10
2022-09-06T14:36:23.888Z,2.30
2022-09-06T14:38:51.507Z,4.03
2022-09-06T14:41:19.602Z,2.70
2022-09-06T14:43:51.226Z,2.28
2022-09-06T14:46:19.294Z,4.00
2022-09-06T14:48:46.973Z,3.78
2022-09-06T14:51:19.058Z,2.83
2022-09-06T14:53:46.542Z,2.97
2022-09-06T14:56:13.776Z,2.40
2022-09-06T14:58:42.079Z,2.55
2022-09-06T15:01:09.209Z,2.67
2022-09-06T15:03:36.674Z,3.05
2022-09-06T15:06:04.146Z,4.03
2022-09-06T15:08:31.295Z,3.70
2022-09-06T15:10:58.494Z,2.30
2022-09-06T15:13:26.941Z,2.80
2022-09-06T15:15:55.097Z,2.40
2022-09-06T15:18:22.682Z,3.20
2022-09-06T15:20:50.510Z,2.30
2022-09-06T15:23:25.669Z,2.40
2022-09-06T15:25:54.273Z,2.28
2022-09-06T15:28:21.454Z,2.93
2022-09-06T15:30:49.187Z,2.67
2022-09-06T15:33:16.412Z,2.50
2022-09-06T15:35:43.722Z,3.05
2022-09-06T15:38:12.109Z,2.70
2022-09-06T15:40:39.425Z,2.95
2022-09-06T15:43:06.401Z,2.30
2022-09-06T15:45:45.543Z,2.10
2022-09-06T15:48:13.103Z,2.08
2022-09-06T15:50:50.840Z,2.38
2022-09-06T15:53:18.654Z,4.07
2022-09-06T15:56:02.619Z,2.70
2022-09-06T15:58:30.334Z,3.58
2022-09-06T16:01:01.841Z,3.35
2022-09-06T16:03:29.235Z,2.77
2022-09-06T16:08:50.675Z,2.63
2022-09-06T16:11:18.413Z,2.83
2022-09-06T16:13:45.993Z,2.63
2022-09-06T16:16:14.629Z,1.92
2022-09-06T16:18:43.133Z,2.88
2022-09-06T16:21:13.001Z,2.50
2022-09-06T16:23:41.222Z,2.47
2022-09-06T16:26:08.854Z,1.90
2022-09-06T16:28:37.780Z,1.63
2022-09-06T16:31:06.208Z,1.65
2022-09-06T16:33:34.237Z,2.38
2022-09-06T16:36:02.005Z,3.95
2022-09-06T16:38:31.799Z,2.10
2022-09-06T16:41:00.317Z,1.85
2022-09-06T16:43:28.345Z,4.45
2022-09-06T16:45:56.455Z,5.10
2022-09-06T16:48:23.759Z,3.05
2022-09-06T16:50:51.036Z,2.83
2022-09-06T16:53:21.900Z,2.80
2022-09-06T16:55:49.193Z,4.25
2022-09-06T16:58:16.328Z,3.88
2022-09-06T17:00:44.904Z,2.10
2022-09-06T17:03:14.121Z,2.20
2022-09-06T17:05:41.776Z,5.13
2022-09-06T17:08:09.856Z,3.97
2022-09-06T17:10:39.344Z,3.95
2022-09-06T17:13:07.057Z,4.00
2022-09-06T17:15:54.091Z,3.80
2022-09-06T17:18:22.212Z,4.97
2022-09-06T17:20:57.728Z,2.85
2022-09-06T17:23:25.492Z,2.53
2022-09-06T17:25:52.671Z,2.95
2022-09-06T17:28:20.027Z,2.10
2022-09-06T17:30:47.763Z,6.18
2022-09-06T17:33:16.997Z,2.78
2022-09-06T17:35:45.511Z,2.75
2022-09-06T17:38:13.007Z,2.63
2022-09-06T17:40:40.224Z,2.90
2022-09-06T17:43:07.431Z,2.78
2022-09-06T17:45:42.853Z,3.38
2022-09-06T17:48:10.594Z,3.17
2022-09-06T17:50:37.678Z,3.28
2022-09-06T17:53:04.881Z,2.30
2022-09-06T17:55:31.976Z,6.90
2022-09-06T17:57:59.489Z,6.82
2022-09-06T18:00:26.583Z,5.82
2022-09-06T18:02:53.889Z,3.55
2022-09-06T18:05:21.154Z,3.88
2022-09-06T18:07:48.395Z,2.80
2022-09-06T18:10:17.618Z,2.35
2022-09-06T18:12:45.007Z,4.38
2022-09-06T18:15:12.460Z,2.83
2022-09-06T18:17:39.271Z,3.95
2022-09-06T18:20:06.763Z,5.13
2022-09-06T18:22:33.995Z,2.28
2022-09-06T18:25:01.391Z,3.00
2022-09-06T18:27:30.350Z,4.70
2022-09-06T18:29:57.659Z,4.90
2022-09-06T18:32:24.966Z,2.70
2022-09-06T18:34:51.711Z,2.63
2022-09-06T18:37:18.974Z,3.72
2022-09-06T18:39:46.198Z,2.95
2022-09-06T18:42:13.454Z,2.78
2022-09-06T18:44:40.890Z,3.85
2022-09-06T18:47:08.714Z,5.65
2022-09-06T18:49:39.501Z,2.50
2022-09-06T18:52:09.258Z,2.45
2022-09-06T18:54:36.474Z,2.65
2022-09-06T18:57:04.238Z,4.27
2022-09-06T18:59:31.488Z,3.25
2022-09-06T19:01:58.849Z,4.37
2022-09-06T19:04:26.107Z,2.60
2022-09-06T19:06:53.293Z,2.70
2022-09-06T19:09:20.442Z,5.63
2022-09-06T19:11:51.457Z,4.80
2022-09-06T19:14:18.678Z,4.60
2022-09-06T19:16:46.481Z,3.50
2022-09-06T19:19:13.881Z,3.42
2022-09-06T19:21:42.243Z,4.47
2022-09-06T19:24:10.106Z,4.78
2022-09-06T19:26:38.457Z,4.35
2022-09-06T19:29:07.013Z,5.30
2022-09-06T19:31:36.739Z,4.30
2022-09-06T19:34:04.220Z,3.17
2022-09-06T19:36:31.970Z,4.95
2022-09-06T19:39:04.985Z,4.45
2022-09-06T19:41:33.522Z,5.00
2022-09-06T19:44:01.607Z,5.45
2022-09-06T19:46:28.942Z,3.97
2022-09-06T19:48:56.463Z,4.55
2022-09-06T19:51:24.057Z,5.25
2022-09-06T19:53:53.072Z,4.90
2022-09-06T19:56:23.017Z,3.90
2022-09-06T19:58:55.203Z,5.18
2022-09-06T20:01:23.009Z,4.03
2022-09-06T20:03:50.521Z,4.53
2022-09-06T20:06:17.676Z,3.58
2022-09-06T20:08:44.705Z,6.78
2022-09-06T20:11:12.726Z,6.00
2022-09-06T20:13:40.432Z,6.10
2022-09-06T20:16:08.635Z,4.93
2022-09-06T20:18:35.925Z,6.97
2022-09-06T20:21:03.356Z,7.20
2022-09-06T20:23:31.500Z,8.75
2022-09-06T20:26:00.608Z,6.88
2022-09-06T20:28:28.026Z,6.38
2022-09-06T20:30:59.728Z,7.68
2022-09-06T20:33:26.870Z,6.82
2022-09-06T20:35:55.053Z,6.85
2022-09-06T20:38:22.893Z,5.37
2022-09-06T20:40:57.636Z,4.82
2022-09-06T20:43:24.801Z,8.95
2022-09-06T20:45:52.680Z,7.53
2022-09-06T20:48:19.932Z,4.73
2022-09-06T20:50:47.404Z,5.38
2022-09-06T20:53:14.578Z,6.20
2022-09-06T20:55:41.751Z,6.38
2022-09-06T20:58:09.059Z,10.50
2022-09-06T21:00:40.093Z,10.00
2022-09-06T21:03:07.579Z,6.60
2022-09-06T21:05:34.748Z,11.55
2022-09-06T21:08:01.980Z,5.22
2022-09-06T21:10:29.449Z,5.22
2022-09-06T21:12:56.600Z,5.13
2022-09-06T21:15:23.741Z,4.40
2022-09-06T21:17:50.936Z,5.63
2022-09-06T21:20:18.040Z,4.07
2022-09-06T21:22:45.153Z,6.38
2022-09-06T21:25:12.288Z,4.85
2022-09-06T21:27:39.452Z,6.35
2022-09-06T21:30:06.830Z,5.20
2022-09-06T21:32:33.553Z,4.85
2022-09-06T21:35:00.726Z,5.00
2022-09-06T21:37:27.868Z,5.15
2022-09-06T21:39:55.048Z,4.63
2022-09-06T21:42:22.180Z,5.82
2022-09-06T21:44:49.336Z,4.53
2022-09-06T21:47:16.462Z,5.30
2022-09-06T21:49:43.628Z,4.80
2022-09-06T21:52:10.789Z,5.80
2022-09-06T21:54:37.904Z,4.57
2022-09-06T21:57:05.304Z,3.88
2022-09-06T21:59:32.734Z,4.28
2022-09-06T22:02:00.072Z,4.78
2022-09-06T22:04:27.373Z,4.03
2022-09-06T22:06:54.608Z,4.93
2022-09-06T22:09:22.037Z,6.90
2022-09-06T22:11:49.176Z,7.03
2022-09-06T22:14:16.742Z,7.33
2022-09-06T22:16:44.369Z,6.63
2022-09-06T22:19:11.940Z,4.80
2022-09-06T22:21:39.128Z,5.68
2022-09-06T22:24:07.813Z,8.55
2022-09-06T22:26:36.543Z,4.50
2022-09-06T22:29:05.300Z,4.47
2022-09-06T22:31:33.345Z,4.40
2022-09-06T22:34:01.163Z,5.20
2022-09-06T22:36:28.591Z,4.20
2022-09-06T22:38:57.554Z,4.78
2022-09-06T22:41:25.699Z,4.32
2022-09-06T22:43:52.832Z,5.13
2022-09-06T22:46:20.266Z,4.80
2022-09-06T22:48:47.556Z,5.60
2022-09-06T22:51:14.751Z,5.57
2022-09-06T22:53:41.889Z,3.63
2022-09-06T22:56:09.087Z,4.13
2022-09-06T22:58:36.275Z,4.18
2022-09-06T23:01:08.345Z,5.13
2022-09-06T23:03:35.612Z,4.00
2022-09-06T23:06:03.487Z,4.03
2022-09-06T23:08:31.357Z,4.07
2022-09-06T23:10:58.983Z,3.65
2022-09-06T23:13:26.150Z,4.25
2022-09-06T23:15:53.460Z,4.53
2022-09-06T23:18:20.770Z,4.53
2022-09-06T23:20:47.903Z,6.40
2022-09-06T23:23:15.050Z,6.32
2022-09-06T23:25:42.171Z,6.75
2022-09-06T23:28:09.331Z,6.63
2022-09-06T23:30:38.605Z,6.60
2022-09-06T23:33:05.762Z,5.77
2022-09-06T23:35:32.559Z,5.00
2022-09-06T23:37:59.742Z,6.03
2022-09-06T23:40:26.890Z,6.20
2022-09-06T23:42:54.115Z,4.30
2022-09-06T23:45:21.387Z,6.35
2022-09-06T23:47:48.595Z,6.78
2022-09-06T23:50:15.865Z,5.95
2022-09-06T23:52:42.969Z,4.53
2022-09-06T23:55:10.246Z,6.15
2022-09-06T23:57:37.609Z,5.37
